Time;durP1;ratioP1;P1;durP2;ratioP2;P2;SDS_P1;SDS_P2;PMS_P1;PMS_P2;Temp;Humidity;BMP_temperature;BMP_pressure;BME280_temperature;BME280_humidity;BME280_pressure;Samples;Min_cycle;Max_cycle;Signal;HPM_P1;HPM_P2
2023/08/13 00:00:24;;;;;;;11.82;3.97;;;18.50;99.90;;;;;;5053074;28;20025;-48
2023/08/13 00:02:50;;;;;;;9.25;3.78;;;17.40;99.90;;;;;;5053061;28;20716;-54
2023/08/13 00:05:15;;;;;;;5.20;1.58;;;18.50;99.90;;;;;;5053018;28;20033;-46
2023/08/13 00:07:41;;;;;;;5.53;2.15;;;17.60;99.90;;;;;;5052882;28;20024;-51
2023/08/13 00:10:07;;;;;;;11.07;3.13;;;18.70;99.90;;;;;;5052924;28;20341;-52
2023/08/13 00:12:32;;;;;;;5.70;1.85;;;16.40;99.90;;;;;;5052938;28;20025;-47
2023/08/13 00:14:59;;;;;;;11.57;2.00;;;17.00;99.90;;;;;;5052639;28;20082;-52
2023/08/13 00:17:25;;;;;;;8.07;1.23;;;18.60;99.90;;;;;;5052762;28;20087;-53
2023/08/13 00:19:51;;;;;;;7.00;2.15;;;17.20;99.90;;;;;;5052284;28;20033;-53
2023/08/13 00:22:16;;;;;;;5.95;1.75;;;18.10;99.90;;;;;;5052910;28;20017;-53
2023/08/13 00:24:42;;;;;;;6.47;1.35;;;16.70;99.90;;;;;;5052813;28;20025;-49
2023/08/13 00:27:07;;;;;;;5.50;0.90;;;18.50;99.90;;;;;;5052398;28;20393;-47
2023/08/13 00:29:33;;;;;;;2.65;1.08;;;;;;;;;;5052233;28;20025;-48
2023/08/13 00:31:59;;;;;;;6.55;1.50;;;;;;;;;;5052473;28;20021;-48
2023/08/13 00:34:25;;;;;;;9.27;1.98;;;16.60;99.90;;;;;;5052279;28;20097;-56
2023/08/13 00:36:51;;;;;;;5.15;1.08;;;17.30;99.90;;;;;;5052633;28;20048;-55
2023/08/13 00:39:16;;;;;;;6.72;1.20;;;16.80;99.90;;;;;;5051787;28;20347;-51
2023/08/13 00:41:42;;;;;;;7.25;1.05;;;17.00;99.90;;;;;;5052485;28;20033;-48
2023/08/13 00:44:08;;;;;;;5.03;1.02;;;17.20;99.90;;;;;;5052180;28;20058;-52
2023/08/13 00:46:33;;;;;;;3.85;0.90;;;16.60;99.90;;;;;;5052179;28;20051;-52
2023/08/13 00:48:59;;;;;;;5.32;0.98;;;16.30;99.90;;;;;;5051997;28;20033;-48
2023/08/13 00:51:26;;;;;;;6.30;1.15;;;13.50;99.90;;;;;;5052027;28;20031;-48
2023/08/13 00:53:53;;;;;;;6.18;1.10;;;17.10;99.90;;;;;;5051374;28;20033;-46
2023/08/13 00:56:21;;;;;;;5.38;1.40;;;17.30;99.90;;;;;;5051922;28;20036;-54
2023/08/13 00:58:46;;;;;;;5.70;1.20;;;17.20;99.90;;;;;;5051757;28;20455;-49
2023/08/13 01:01:12;;;;;;;8.77;1.35;;;13.60;99.90;;;;;;5051623;28;20525;-49
2023/08/13 01:03:38;;;;;;;9.43;1.30;;;18.70;99.90;;;;;;5051331;28;20052;-50
2023/08/13 01:06:04;;;;;;;4.80;1.15;;;16.50;99.90;;;;;;5051339;28;20048;-54
2023/08/13 01:09:05;;;;;;;3.42;0.95;;;18.00;99.90;;;;;;5051052;28;20167;-49
2023/08/13 01:11:57;;;;;;;4.53;1.10;;;18.40;99.90;;;;;;5051421;28;20596;-52
2023/08/13 01:14:53;;;;;;;7.47;1.58;;;16.70;99.90;;;;;;5051704;28;20044;-52
2023/08/13 01:17:22;;;;;;;4.38;0.82;;;17.60;99.90;;;;;;5041858;28;20033;-47
2023/08/13 01:19:48;;;;;;;6.03;1.10;;;16.70;99.90;;;;;;5051583;28;20489;-52
2023/08/13 01:22:14;;;;;;;2.28;0.90;;;;;;;;;;5051552;28;20556;-48
2023/08/13 01:24:39;;;;;;;5.65;1.23;;;16.80;99.90;;;;;;5051410;28;20421;-49
2023/08/13 01:27:22;;;;;;;6.35;1.15;;;16.80;99.90;;;;;;5051309;28;20025;-51
2023/08/13 01:30:18;;;;;;;6.25;1.65;;;15.40;99.90;;;;;;5051325;28;20036;-54
2023/08/13 01:32:50;;;;;;;13.57;1.75;;;18.60;99.90;;;;;;5050833;28;20033;-51
2023/08/13 01:35:19;;;;;;;7.57;1.25;;;17.90;99.90;;;;;;5051309;28;20025;-52
2023/08/13 01:37:45;;;;;;;4.72;1.00;;;17.00;99.90;;;;;;5051526;28;20112;-54
2023/08/13 01:40:11;;;;;;;7.97;1.08;;;17.50;99.90;;;;;;5051179;28;20080;-51
2023/08/13 01:42:37;;;;;;;9.18;1.70;;;16.10;99.90;;;;;;5049311;28;20112;-53
2023/08/13 01:45:03;;;;;;;8.23;1.30;;;17.90;99.90;;;;;;5050949;28;20116;-51
2023/08/13 01:47:29;;;;;;;8.23;1.17;;;17.50;99.90;;;;;;5050647;28;20114;-55
2023/08/13 01:49:54;;;;;;;7.80;1.15;;;16.80;99.90;;;;;;5050841;28;20021;-48
2023/08/13 01:52:20;;;;;;;9.52;1.77;;;17.90;99.90;;;;;;5050963;28;20082;-54
2023/08/13 01:54:46;;;;;;;5.47;1.25;;;;;;;;;;5050886;28;20044;-50
2023/08/13 01:57:12;;;;;;;2.50;0.73;;;18.00;99.90;;;;;;5050698;28;20532;-51
2023/08/13 01:59:37;;;;;;;4.95;0.93;;;17.90;99.90;;;;;;5050543;28;20131;-52
2023/08/13 02:02:03;;;;;;;6.68;0.93;;;17.30;99.90;;;;;;5050506;28;20021;-54
2023/08/13 02:04:28;;;;;;;2.83;1.02;;;18.10;99.90;;;;;;5050320;28;20367;-48
2023/08/13 02:06:54;;;;;;;5.18;1.52;;;17.00;99.90;;;;;;5050765;28;20025;-51
2023/08/13 02:09:19;;;;;;;6.07;1.10;;;17.80;99.90;;;;;;5050353;28;20414;-55
2023/08/13 02:11:45;;;;;;;6.30;1.42;;;18.30;99.90;;;;;;5050426;28;20116;-50
2023/08/13 02:14:11;;;;;;;4.85;0.82;;;15.30;99.90;;;;;;5050408;28;20350;-52
2023/08/13 02:16:36;;;;;;;13.27;2.05;;;18.00;99.90;;;;;;5050315;28;20075;-55
2023/08/13 02:19:02;;;;;;;5.60;1.25;;;17.00;99.90;;;;;;5049756;28;20041;-51
2023/08/13 02:21:28;;;;;;;3.97;0.82;;;;;;;;;;5050236;28;20025;-51
2023/08/13 02:23:53;;;;;;;7.03;1.30;;;14.20;99.90;;;;;;5050291;28;20078;-47
2023/08/13 02:26:19;;;;;;;7.53;1.23;;;;;;;;;;5050172;28;20425;-50
2023/08/13 02:28:45;;;;;;;5.30;1.08;;;16.90;99.90;;;;;;5050447;28;20021;-52
2023/08/13 02:31:11;;;;;;;4.88;0.98;;;13.50;99.90;;;;;;5050173;28;20477;-57
2023/08/13 02:33:37;;;;;;;6.28;1.05;;;;;;;;;;5048332;28;20477;-52
2023/08/13 02:36:03;;;;;;;5.28;1.23;;;18.00;99.90;;;;;;5050120;28;20025;-55
2023/08/13 02:38:29;;;;;;;6.93;1.13;;;18.10;99.90;;;;;;5049737;28;20040;-53
2023/08/13 02:40:54;;;;;;;5.32;0.82;;;;;;;;;;5050255;28;20112;-52
2023/08/13 02:43:20;;;;;;;3.83;1.33;;;18.40;99.90;;;;;;5050093;28;20025;-50
2023/08/13 02:45:46;;;;;;;3.65;0.90;;;17.80;99.90;;;;;;5048843;28;20064;-55
2023/08/13 02:48:11;;;;;;;5.28;1.10;;;13.30;99.90;;;;;;5040789;28;20130;-52
2023/08/13 02:50:37;;;;;;;4.80;1.13;;;17.00;99.90;;;;;;5035899;28;20037;-49
2023/08/13 02:53:03;;;;;;;6.57;1.20;;;;;;;;;;5049999;28;20060;-50
2023/08/13 02:55:29;;;;;;;9.13;1.52;;;;;;;;;;5049823;28;20017;-49
2023/08/13 02:57:55;;;;;;;7.20;1.20;;;18.20;99.90;;;;;;5049965;28;20025;-53
2023/08/13 03:00:21;;;;;;;9.65;1.50;;;13.60;99.90;;;;;;5049563;28;20029;-47
2023/08/13 03:02:46;;;;;;;7.82;1.10;;;18.40;99.90;;;;;;5043411;28;20016;-49
2023/08/13 03:05:12;;;;;;;4.38;0.90;;;17.60;99.90;;;;;;5029608;28;20053;-51
2023/08/13 03:07:37;;;;;;;3.83;0.95;;;13.50;99.90;;;;;;5033296;28;20084;-49
2023/08/13 03:10:03;;;;;;;11.13;1.45;;;13.10;99.90;;;;;;5030950;28;20444;-51
2023/08/13 03:12:29;;;;;;;6.30;1.40;;;16.80;99.90;;;;;;5031524;28;20029;-52
2023/08/13 03:14:55;;;;;;;8.82;1.17;;;16.40;99.90;;;;;;5032428;28;20025;-52
2023/08/13 03:17:20;;;;;;;7.03;1.10;;;18.70;99.90;;;;;;5033175;28;20068;-52
2023/08/13 03:19:46;;;;;;;8.18;1.38;;;13.60;99.90;;;;;;5029657;28;20490;-48
2023/08/13 03:22:12;;;;;;;4.47;1.05;;;18.00;99.90;;;;;;5032955;28;20164;-52
2023/08/13 03:24:37;;;;;;;5.38;1.40;;;18.40;99.90;;;;;;5032835;28;20054;-47
2023/08/13 03:27:03;;;;;;;3.72;1.23;;;13.10;99.90;;;;;;5032058;28;20030;-50
2023/08/13 03:29:29;;;;;;;4.63;1.23;;;18.40;99.90;;;;;;5032771;28;20029;-48
2023/08/13 03:31:54;;;;;;;5.57;1.40;;;17.40;99.90;;;;;;5032749;28;20060;-55
2023/08/13 03:34:20;;;;;;;4.80;1.20;;;;;;;;;;5036509;28;20052;-52
2023/08/13 03:36:46;;;;;;;4.65;1.23;;;17.80;99.90;;;;;;5036616;28;20057;-50
2023/08/13 03:39:12;;;;;;;4.95;0.98;;;16.90;99.90;;;;;;5035001;28;20374;-49
2023/08/13 03:41:37;;;;;;;6.28;1.27;;;16.30;99.90;;;;;;5033076;28;20017;-50
2023/08/13 03:44:03;;;;;;;5.13;1.30;;;17.70;99.90;;;;;;5047976;28;20032;-54
2023/08/13 03:46:29;;;;;;;4.63;1.02;;;13.80;99.90;;;;;;5034877;28;20116;-49
2023/08/13 03:48:55;;;;;;;8.35;1.35;;;13.30;99.90;;;;;;5036731;28;20108;-54
2023/08/13 03:51:20;;;;;;;4.88;1.25;;;14.10;99.90;;;;;;5045257;28;20386;-53
2023/08/13 03:53:46;;;;;;;4.68;1.23;;;;;;;;;;5053046;28;20025;-51
2023/08/13 03:56:12;;;;;;;2.15;1.02;;;;;;;;;;5052815;28;20029;-52
2023/08/13 03:58:38;;;;;;;9.10;1.50;;;17.70;99.90;;;;;;5052719;28;20033;-54
2023/08/13 04:01:07;;;;;;;5.50;1.60;;;18.80;99.90;;;;;;5052955;28;20036;-52
2023/08/13 04:03:33;;;;;;;;;;;16.50;99.90;;;;;;5053185;28;20389;-54
2023/08/13 04:05:59;;;;;;;2.45;1.27;;;;;;;;;;5052784;28;19905;-50
2023/08/13 04:08:25;;;;;;;9.32;1.50;;;14.70;99.90;;;;;;5052788;28;20033;-46
2023/08/13 04:10:52;;;;;;;9.10;1.70;;;16.80;99.90;;;;;;5052662;28;20500;-52
2023/08/13 04:13:18;;;;;;;6.75;1.40;;;17.50;99.90;;;;;;5052502;28;20021;-51
2023/08/13 04:15:44;;;;;;;8.93;1.38;;;18.00;99.90;;;;;;5052847;28;20044;-49
2023/08/13 04:18:10;;;;;;;6.78;1.30;;;;;;;;;;5052429;28;20386;-50
2023/08/13 04:20:36;;;;;;;4.35;1.00;;;17.30;99.90;;;;;;5052426;28;20094;-47
2023/08/13 04:23:02;;;;;;;6.22;1.10;;;17.10;99.90;;;;;;5052720;28;20013;-49
2023/08/13 04:25:28;;;;;;;2.70;0.90;;;16.70;99.90;;;;;;5052537;28;20048;-50
2023/08/13 04:27:53;;;;;;;5.55;1.08;;;17.70;99.90;;;;;;5052046;28;20409;-52
2023/08/13 04:30:19;;;;;;;6.00;1.35;;;17.60;99.90;;;;;;5052599;28;20021;-54
2023/08/13 04:32:55;;;;;;;7.22;0.95;;;17.90;99.90;;;;;;5052332;28;20039;-47
2023/08/13 04:35:25;;;;;;;5.47;1.42;;;17.50;99.90;;;;;;5052481;28;20021;-51
2023/08/13 04:37:51;;;;;;;4.32;1.52;;;17.10;99.90;;;;;;5052086;28;20080;-55
2023/08/13 04:40:17;;;;;;;4.07;1.00;;;17.00;99.90;;;;;;5052033;28;20033;-51
2023/08/13 04:42:43;;;;;;;10.95;1.52;;;;;;;;;;5051361;28;20409;-47
2023/08/13 04:45:11;;;;;;;6.07;1.23;;;17.60;99.90;;;;;;5052335;28;20048;-54
2023/08/13 04:47:37;;;;;;;9.50;1.98;;;;;;;;;;5052012;28;20073;-51
2023/08/13 04:50:03;;;;;;;7.15;1.33;;;18.20;99.90;;;;;;5052005;28;20033;-55
2023/08/13 04:52:29;;;;;;;8.73;2.25;;;;;;;;;;5052373;28;20029;-51
2023/08/13 04:54:54;;;;;;;5.13;0.95;;;17.00;99.90;;;;;;5050887;28;20055;-50
2023/08/13 04:57:21;;;;;;;3.65;1.08;;;;;;;;;;5051520;28;20017;-47
2023/08/13 04:59:47;;;;;;;6.53;1.23;;;;;;;;;;5051699;28;20464;-54
2023/08/13 05:02:12;;;;;;;7.45;1.40;;;13.80;99.90;;;;;;5051739;28;20048;-53
2023/08/13 05:04:38;;;;;;;5.50;1.02;;;13.20;99.90;;;;;;5051844;28;20112;-53
2023/08/13 05:07:03;;;;;;;9.32;1.42;;;17.50;99.90;;;;;;5051600;28;20151;-51
2023/08/13 05:09:31;;;;;;;4.03;1.40;;;17.60;99.90;;;;;;5051553;28;20032;-48
2023/08/13 05:11:56;;;;;;;8.88;1.63;;;16.80;99.90;;;;;;5051992;28;20075;-53
2023/08/13 05:14:22;;;;;;;5.22;1.23;;;16.60;99.90;;;;;;5051599;28;20528;-51
2023/08/13 05:16:48;;;;;;;6.13;1.45;;;16.30;99.90;;;;;;5051842;28;20090;-56
2023/08/13 05:19:14;;;;;;;11.75;1.52;;;19.00;99.90;;;;;;5051343;28;20115;-53
2023/08/13 05:21:39;;;;;;;6.07;1.40;;;18.20;99.90;;;;;;5051655;28;20478;-54
2023/08/13 05:24:05;;;;;;;6.63;1.33;;;;;;;;;;5051414;28;20075;-48
2023/08/13 05:26:31;;;;;;;8.88;1.50;;;18.10;99.90;;;;;;5051644;28;20033;-55
2023/08/13 05:28:57;;;;;;;8.85;1.70;;;;;;;;;;5051728;28;20029;-51
2023/08/13 05:31:23;;;;;;;7.63;1.30;;;17.20;99.90;;;;;;5051290;28;20044;-51
2023/08/13 05:33:48;;;;;;;5.05;1.33;;;16.80;99.90;;;;;;5051378;28;20032;-52
2023/08/13 05:36:14;;;;;;;11.15;1.52;;;17.80;99.90;;;;;;5051151;28;20105;-48
2023/08/13 05:38:40;;;;;;;10.40;1.50;;;17.90;99.90;;;;;;5050975;28;20061;-47
2023/08/13 05:41:06;;;;;;;5.90;1.25;;;17.70;99.90;;;;;;5051292;28;20468;-56
2023/08/13 05:43:31;;;;;;;4.65;1.17;;;18.20;99.90;;;;;;5051242;28;20414;-48
2023/08/13 05:45:57;;;;;;;4.82;1.52;;;18.60;99.90;;;;;;5051074;28;20083;-55
2023/08/13 05:48:23;;;;;;;8.10;1.08;;;;;;;;;;5050942;28;20082;-50
2023/08/13 05:50:48;;;;;;;9.02;1.45;;;17.70;99.90;;;;;;5051138;28;20052;-54
2023/08/13 05:53:14;;;;;;;5.82;1.20;;;18.00;99.90;;;;;;5050556;28;20116;-50
2023/08/13 05:55:40;;;;;;;9.18;1.45;;;18.10;99.90;;;;;;5050107;28;20487;-51
2023/08/13 05:58:06;;;;;;;7.32;1.08;;;17.80;99.90;;;;;;5050806;28;20028;-51
2023/08/13 06:00:31;;;;;;;7.03;1.40;;;17.60;99.90;;;;;;5050662;28;20082;-48
2023/08/13 06:02:57;;;;;;;5.32;1.08;;;18.30;99.90;;;;;;5050899;28;20032;-54
2023/08/13 06:05:23;;;;;;;10.88;1.20;;;17.80;99.90;;;;;;5050581;28;20435;-50
2023/08/13 06:07:48;;;;;;;7.97;1.27;;;18.70;99.90;;;;;;5050942;28;20025;-51
2023/08/13 06:10:14;;;;;;;6.72;1.50;;;18.70;99.90;;;;;;5050903;28;20516;-49
2023/08/13 06:12:40;;;;;;;6.13;1.30;;;18.20;99.90;;;;;;5050636;28;20021;-51
2023/08/13 06:15:06;;;;;;;7.47;1.52;;;18.40;99.90;;;;;;5050715;28;20025;-48
2023/08/13 06:17:32;;;;;;;16.40;1.70;;;;;;;;;;5050414;28;20547;-49
2023/08/13 06:20:00;;;;;;;6.35;1.30;;;18.80;99.90;;;;;;5050674;28;20063;-55
2023/08/13 06:22:25;;;;;;;9.15;1.50;;;18.50;99.90;;;;;;5049295;28;20098;-51
2023/08/13 06:24:51;;;;;;;5.03;1.30;;;19.90;99.90;;;;;;5047969;28;20436;-54
2023/08/13 06:27:16;;;;;;;8.10;1.35;;;18.50;99.90;;;;;;5046045;28;20100;-50
2023/08/13 06:29:42;;;;;;;6.65;1.13;;;;;;;;;;5040570;28;20200;-49
2023/08/13 06:32:08;;;;;;;10.23;1.40;;;19.00;99.90;;;;;;5033254;28;20029;-51
2023/08/13 06:34:34;;;;;;;10.52;1.67;;;18.20;99.90;;;;;;5043932;28;20018;-49
2023/08/13 06:37:00;;;;;;;7.53;1.27;;;18.60;99.90;;;;;;5037724;28;20071;-47
2023/08/13 06:39:26;;;;;;;7.68;1.65;;;19.10;99.90;;;;;;5037658;28;20079;-52
2023/08/13 06:41:52;;;;;;;8.55;1.30;;;19.50;99.90;;;;;;5031469;28;20061;-57
2023/08/13 06:44:19;;;;;;;6.50;1.30;;;20.40;99.90;;;;;;5036680;28;20017;-47
2023/08/13 06:46:46;;;;;;;2.83;0.80;;;19.40;99.90;;;;;;5037651;28;20038;-55
2023/08/13 06:49:11;;;;;;;6.45;1.20;;;19.80;99.90;;;;;;5035853;28;20013;-53
2023/08/13 06:51:38;;;;;;;2.95;0.93;;;19.30;99.90;;;;;;5032003;28;20029;-52
2023/08/13 06:54:04;;;;;;;3.58;1.48;;;18.80;99.90;;;;;;5050407;28;20035;-52
2023/08/13 06:56:30;;;;;;;3.10;0.95;;;19.60;99.90;;;;;;5050303;28;20033;-49
2023/08/13 06:58:56;;;;;;;7.50;1.30;;;19.60;99.90;;;;;;5049965;28;20497;-54
2023/08/13 07:01:22;;;;;;;10.70;1.42;;;19.80;99.90;;;;;;5050156;28;20024;-54
2023/08/13 07:03:47;;;;;;;6.38;1.15;;;20.70;99.90;;;;;;5050174;28;20025;-53
2023/08/13 07:06:13;;;;;;;5.88;1.45;;;20.80;99.90;;;;;;5052091;28;20024;-54
2023/08/13 07:08:39;;;;;;;5.70;1.50;;;19.50;99.90;;;;;;5054296;28;20033;-54
2023/08/13 07:11:04;;;;;;;4.03;0.90;;;20.90;99.90;;;;;;5054004;28;20033;-49
2023/08/13 07:13:30;;;;;;;3.33;1.00;;;18.90;99.90;;;;;;5054112;28;20079;-52
2023/08/13 07:15:55;;;;;;;7.13;1.77;;;15.30;99.90;;;;;;5053969;28;20067;-47
2023/08/13 07:18:21;;;;;;;3.03;1.17;;;15.50;99.90;;;;;;5053957;28;20021;-48
2023/08/13 07:20:47;;;;;;;3.83;1.13;;;19.70;99.90;;;;;;5053731;28;20102;-50
2023/08/13 07:23:12;;;;;;;10.25;1.42;;;21.60;99.90;;;;;;5053977;28;20462;-51
2023/08/13 07:25:38;;;;;;;9.73;1.50;;;19.10;99.90;;;;;;5053783;28;20098;-53
2023/08/13 07:28:06;;;;;;;3.53;1.30;;;21.10;99.90;;;;;;5053760;28;20033;-50
2023/08/13 07:30:32;;;;;;;9.95;1.10;;;20.10;99.90;;;;;;5053795;28;20017;-49
2023/08/13 07:32:57;;;;;;;4.63;1.02;;;21.60;99.90;;;;;;5053627;28;20028;-51
2023/08/13 07:35:24;;;;;;;4.97;1.15;;;20.40;99.90;;;;;;5053401;28;20500;-53
2023/08/13 07:37:50;;;;;;;5.35;0.73;;;20.40;99.90;;;;;;5053121;28;20037;-56
2023/08/13 07:40:16;;;;;;;7.30;1.20;;;19.70;99.90;;;;;;5053561;28;20072;-48
2023/08/13 07:42:42;;;;;;;2.38;0.93;;;19.50;99.90;;;;;;5053400;28;20076;-50
2023/08/13 07:45:08;;;;;;;6.07;1.20;;;19.60;99.90;;;;;;5053427;28;20082;-54
2023/08/13 07:47:36;;;;;;;5.13;1.38;;;20.20;99.90;;;;;;5053371;28;20041;-49
2023/08/13 07:50:04;;;;;;;3.38;0.80;;;22.20;99.90;;;;;;5052903;28;20033;-51
2023/08/13 07:52:34;;;;;;;3.92;0.88;;;20.00;99.90;;;;;;5053382;28;20028;-53
2023/08/13 07:55:00;;;;;;;5.10;1.13;;;19.60;99.90;;;;;;5053434;28;20029;-54
2023/08/13 07:57:26;;;;;;;7.22;1.27;;;16.60;99.90;;;;;;5053371;28;20029;-52
2023/08/13 07:59:52;;;;;;;4.80;1.13;;;16.40;99.90;;;;;;5052998;28;20047;-55
2023/08/13 08:02:17;;;;;;;6.70;1.10;;;20.80;99.90;;;;;;5048737;28;20032;-51
2023/08/13 08:04:44;;;;;;;5.85;0.93;;;19.20;99.90;;;;;;5033188;28;20077;-51
2023/08/13 08:07:10;;;;;;;6.22;1.00;;;19.70;99.90;;;;;;5034364;28;20029;-48
2023/08/13 08:09:36;;;;;;;3.22;1.20;;;20.50;99.90;;;;;;5042119;28;20050;-51
2023/08/13 08:12:01;;;;;;;4.57;1.08;;;18.70;99.90;;;;;;5034368;28;20025;-54
2023/08/13 08:14:27;;;;;;;5.47;1.08;;;18.00;99.90;;;;;;5038770;28;20029;-52
2023/08/13 08:16:57;;;;;;;4.43;0.90;;;18.50;99.90;;;;;;5044012;28;20021;-49
2023/08/13 08:19:23;;;;;;;5.68;1.20;;;19.40;99.90;;;;;;5048229;28;20048;-52
2023/08/13 08:21:49;;;;;;;5.25;1.40;;;17.90;99.90;;;;;;5050915;28;20025;-49
2023/08/13 08:24:14;;;;;;;6.35;1.08;;;19.60;99.90;;;;;;5045439;28;20053;-52
2023/08/13 08:26:40;;;;;;;3.13;0.85;;;18.80;99.90;;;;;;5038562;28;20036;-48
2023/08/13 08:29:05;;;;;;;4.55;0.82;;;19.90;99.90;;;;;;5042933;28;20470;-51
2023/08/13 08:31:31;;;;;;;3.42;1.08;;;20.40;99.90;;;;;;5035530;28;20029;-54
2023/08/13 08:33:56;;;;;;;3.63;0.85;;;20.10;99.90;;;;;;5039609;28;20032;-47
2023/08/13 08:36:22;;;;;;;5.22;0.98;;;16.30;99.90;;;;;;5039270;28;20176;-49
2023/08/13 08:38:48;;;;;;;4.55;0.68;;;20.60;99.90;;;;;;5034416;28;20036;-50
2023/08/13 08:41:15;;;;;;;3.13;0.98;;;19.90;99.90;;;;;;5035814;28;20021;-50
2023/08/13 08:43:41;;;;;;;3.97;0.90;;;19.70;99.90;;;;;;5037661;28;20501;-48
2023/08/13 08:46:09;;;;;;;5.07;1.13;;;19.70;99.90;;;;;;5037460;28;20644;-47
2023/08/13 08:48:35;;;;;;;3.05;0.70;;;19.70;99.90;;;;;;5032433;28;20037;-47
2023/08/13 08:51:02;;;;;;;1.70;0.73;;;21.50;99.90;;;;;;5038615;28;20025;-51
2023/08/13 08:53:28;;;;;;;5.22;0.82;;;19.60;99.90;;;;;;5039852;28;20389;-52
2023/08/13 08:55:54;;;;;;;1.20;0.82;;;;;;;;;;5049269;28;20401;-47
2023/08/13 08:58:21;;;;;;;2.72;0.60;;;;;;;;;;5040835;28;20033;-48
2023/08/13 09:00:46;;;;;;;6.75;0.70;;;20.60;99.90;;;;;;5046103;28;20025;-54
2023/08/13 09:03:12;;;;;;;4.00;0.75;;;20.60;99.90;;;;;;5042237;28;20021;-54
2023/08/13 09:05:40;;;;;;;1.30;0.60;;;20.80;99.90;;;;;;5049892;28;20381;-49
2023/08/13 09:08:15;;;;;;;1.97;0.67;;;20.10;99.90;;;;;;5049601;28;20090;-51
2023/08/13 09:10:42;;;;;;;5.93;1.02;;;16.40;99.90;;;;;;5048102;28;20029;-52
2023/08/13 09:13:07;;;;;;;3.22;0.88;;;20.90;99.90;;;;;;5045258;28;20367;-49
2023/08/13 09:15:33;;;;;;;4.32;0.70;;;;;;;;;;5044971;28;20123;-50
2023/08/13 09:17:59;;;;;;;3.08;0.93;;;21.70;99.90;;;;;;5037779;28;20109;-51
2023/08/13 09:20:25;;;;;;;3.35;0.98;;;22.00;99.90;;;;;;5035116;28;20121;-54
2023/08/13 09:22:51;;;;;;;4.40;1.10;;;20.60;99.90;;;;;;5048317;28;21394;-50
2023/08/13 09:25:18;;;;;;;5.75;1.23;;;20.20;99.90;;;;;;5048477;28;20110;-52
2023/08/13 09:27:44;;;;;;;4.03;1.08;;;19.50;99.90;;;;;;5040857;28;20024;-51
2023/08/13 09:30:26;;;;;;;2.88;0.85;;;16.30;99.90;;;;;;5042508;28;20758;-56
2023/08/13 09:32:52;;;;;;;1.33;0.68;;;19.90;99.90;;;;;;5047734;28;20017;-56
2023/08/13 09:35:17;;;;;;;1.50;0.50;;;19.70;99.90;;;;;;5039036;28;20381;-51
2023/08/13 09:37:43;;;;;;;5.93;0.70;;;17.50;99.90;;;;;;5047678;28;20043;-56
2023/08/13 09:40:09;;;;;;;1.05;0.50;;;19.10;99.90;;;;;;5033975;28;20041;-51
2023/08/13 09:42:36;;;;;;;0.85;0.50;;;15.10;99.90;;;;;;5050907;28;20028;-49
2023/08/13 09:45:08;;;;;;;2.03;0.73;;;18.20;99.90;;;;;;5031962;28;20029;-50
2023/08/13 09:47:36;;;;;;;0.70;0.40;;;19.50;99.90;;;;;;5039744;28;20573;-51
2023/08/13 09:50:03;;;;;;;1.15;0.65;;;18.30;99.90;;;;;;5037622;28;20475;-50
2023/08/13 09:52:29;;;;;;;3.92;1.00;;;19.00;99.90;;;;;;5039238;28;20029;-52
2023/08/13 09:55:12;;;;;;;4.72;0.80;;;19.80;99.90;;;;;;5042828;28;20033;-54
2023/08/13 09:57:39;;;;;;;5.65;1.58;;;20.60;99.90;;;;;;5030994;28;20099;-50
2023/08/13 10:00:07;;;;;;;5.72;1.10;;;19.50;99.90;;;;;;5032704;28;20041;-49
2023/08/13 10:02:33;;;;;;;8.57;1.50;;;19.40;99.90;;;;;;5043790;28;20116;-52
2023/08/13 10:04:59;;;;;;;8.13;1.02;;;20.40;99.90;;;;;;5049001;28;20486;-53
2023/08/13 10:07:26;;;;;;;2.53;0.82;;;21.80;99.90;;;;;;5032836;28;20032;-52
2023/08/13 10:09:52;;;;;;;4.78;0.85;;;;;;;;;;5037506;28;20426;-51
2023/08/13 10:12:18;;;;;;;2.03;0.70;;;;;;;;;;5038417;28;20053;-49
2023/08/13 10:14:44;;;;;;;4.63;1.05;;;20.30;99.90;;;;;;5039452;28;20080;-49
2023/08/13 10:17:16;;;;;;;3.90;0.90;;;22.20;99.90;;;;;;5034295;28;20021;-50
2023/08/13 10:19:47;;;;;;;4.07;1.02;;;19.40;99.90;;;;;;5045375;28;20638;-54
2023/08/13 10:22:13;;;;;;;1.50;0.73;;;;;;;;;;5050455;28;20193;-54
2023/08/13 10:24:41;;;;;;;2.45;0.82;;;21.00;99.90;;;;;;5050338;28;20025;-54
2023/08/13 10:27:11;;;;;;;1.90;0.70;;;20.10;99.90;;;;;;5047989;28;20090;-52
2023/08/13 10:29:41;;;;;;;5.25;0.80;;;20.60;99.90;;;;;;5049268;28;20497;-50
2023/08/13 10:32:15;;;;;;;5.28;1.23;;;20.90;99.90;;;;;;5046057;28;20017;-52
2023/08/13 10:34:41;;;;;;;6.63;0.95;;;21.20;99.90;;;;;;5043115;28;20139;-53
2023/08/13 10:37:15;;;;;;;1.10;0.60;;;21.90;99.90;;;;;;5036279;28;20017;-50
2023/08/13 10:39:41;;;;;;;5.10;0.90;;;22.40;99.90;;;;;;5031663;28;20026;-48
2023/08/13 10:42:26;;;;;;;2.08;0.85;;;22.40;99.90;;;;;;5035719;28;20033;-53
2023/08/13 10:44:52;;;;;;;5.10;1.13;;;;;;;;;;5036376;28;20108;-50
2023/08/13 10:47:18;;;;;;;2.97;0.70;;;;;;;;;;5038660;28;20049;-52
2023/08/13 10:49:44;;;;;;;2.35;0.82;;;;;;;;;;5048090;28;20586;-54
2023/08/13 10:52:10;;;;;;;2.75;0.90;;;;;;;;;;5045271;28;20029;-54
2023/08/13 10:54:37;;;;;;;3.97;1.02;;;21.90;99.90;;;;;;5036841;28;20083;-52
2023/08/13 10:57:03;;;;;;;5.72;0.90;;;21.40;99.90;;;;;;5047042;28;20028;-57
2023/08/13 10:59:30;;;;;;;2.25;0.70;;;21.20;99.90;;;;;;5040782;28;20041;-54
2023/08/13 11:02:13;;;;;;;4.78;0.95;;;22.30;99.90;;;;;;5034802;28;20032;-51
2023/08/13 11:04:43;;;;;;;3.50;0.80;;;21.90;99.90;;;;;;5041294;28;20172;-49
2023/08/13 11:07:10;;;;;;;6.35;0.93;;;23.50;99.90;;;;;;5041274;28;20143;-51
2023/08/13 11:09:37;;;;;;;1.63;0.57;;;21.00;99.90;;;;;;5033453;28;20029;-52
2023/08/13 11:12:07;;;;;;;3.50;0.85;;;21.70;99.90;;;;;;5039784;28;20021;-51
2023/08/13 11:14:33;;;;;;;2.42;0.70;;;22.50;99.90;;;;;;5038296;28;20404;-50
2023/08/13 11:16:59;;;;;;;6.25;0.85;;;;;;;;;;5048838;28;20013;-56
2023/08/13 11:19:25;;;;;;;4.15;0.80;;;22.70;99.90;;;;;;5044269;28;20116;-54
2023/08/13 11:21:51;;;;;;;4.53;0.98;;;22.90;99.90;;;;;;5037357;28;20101;-54
2023/08/13 11:24:18;;;;;;;3.28;0.63;;;23.50;99.90;;;;;;5035720;28;20026;-56
2023/08/13 11:26:45;;;;;;;2.65;0.63;;;24.30;99.90;;;;;;5030843;28;20111;-58
2023/08/13 11:29:11;;;;;;;2.15;0.85;;;25.00;99.90;;;;;;5041409;28;20115;-56
2023/08/13 11:31:38;;;;;;;4.78;0.63;;;19.10;99.90;;;;;;5037800;28;20455;-58
2023/08/13 11:34:04;;;;;;;2.38;0.63;;;23.10;99.90;;;;;;5041762;28;20082;-54
2023/08/13 11:36:30;;;;;;;3.30;0.93;;;25.30;99.90;;;;;;5040350;28;20029;-59
2023/08/13 11:38:56;;;;;;;3.15;0.90;;;;;;;;;;5047850;28;20381;-54
2023/08/13 11:41:22;;;;;;;5.45;0.75;;;21.10;99.90;;;;;;5040557;28;20025;-54
2023/08/13 11:43:54;;;;;;;2.67;0.75;;;26.50;99.90;;;;;;5037982;28;20029;-57
2023/08/13 11:46:20;;;;;;;3.08;0.93;;;24.00;99.90;;;;;;5041281;28;20067;-57
2023/08/13 11:48:46;;;;;;;4.68;0.68;;;24.20;99.90;;;;;;5042057;28;20839;-57
2023/08/13 11:51:22;;;;;;;2.05;0.80;;;20.90;99.90;;;;;;5044196;28;20029;-56
2023/08/13 11:53:49;;;;;;;5.22;0.80;;;23.70;99.90;;;;;;5051229;28;20029;-53
2023/08/13 11:56:16;;;;;;;2.67;0.70;;;23.90;99.90;;;;;;5048615;28;20716;-55
2023/08/13 11:58:42;;;;;;;1.13;0.75;;;;;;;;;;5049807;28;20021;-56
2023/08/13 12:01:11;;;;;;;2.67;0.88;;;22.80;99.90;;;;;;5052066;28;20029;-58
2023/08/13 12:03:42;;;;;;;2.80;0.80;;;22.80;99.90;;;;;;5051474;28;20501;-50
2023/08/13 12:06:08;;;;;;;3.20;0.77;;;23.90;99.90;;;;;;5049553;28;20029;-53
2023/08/13 12:08:34;;;;;;;2.45;0.70;;;23.30;99.90;;;;;;5047799;28;20021;-54
2023/08/13 12:11:00;;;;;;;2.78;0.70;;;;;;;;;;5051654;28;20032;-55
2023/08/13 12:13:28;;;;;;;3.30;0.95;;;23.10;99.90;;;;;;5049591;28;20488;-51
2023/08/13 12:15:53;;;;;;;1.42;0.65;;;24.20;99.90;;;;;;5051438;28;20064;-54
2023/08/13 12:18:19;;;;;;;4.20;0.90;;;23.30;99.90;;;;;;5051678;28;20098;-52
2023/08/13 12:20:45;;;;;;;3.42;0.98;;;22.30;99.90;;;;;;5052360;28;20159;-53
2023/08/13 12:23:10;;;;;;;2.85;0.65;;;;;;;;;;5049668;28;20075;-52
2023/08/13 12:25:36;;;;;;;2.35;0.70;;;22.40;99.90;;;;;;5048296;28;20032;-52
2023/08/13 12:28:02;;;;;;;5.93;1.05;;;22.90;99.90;;;;;;5048596;28;20107;-52
2023/08/13 12:30:28;;;;;;;3.30;0.77;;;22.20;99.90;;;;;;5049045;28;20449;-55
2023/08/13 12:32:55;;;;;;;3.10;0.88;;;22.70;99.90;;;;;;5035591;28;20025;-54
2023/08/13 12:35:21;;;;;;;6.07;0.90;;;;;;;;;;5038980;28;20033;-53
2023/08/13 12:37:47;;;;;;;2.45;0.80;;;22.30;99.90;;;;;;5044354;28;20132;-54
2023/08/13 12:40:14;;;;;;;3.30;0.80;;;;;;;;;;5044899;28;20116;-55
2023/08/13 12:42:40;;;;;;;2.85;1.00;;;;;;;;;;5052409;28;20049;-53
2023/08/13 12:45:07;;;;;;;4.20;0.93;;;22.50;99.90;;;;;;5049647;28;20617;-56
2023/08/13 12:47:37;;;;;;;6.88;1.50;;;23.30;99.90;;;;;;5045040;28;20041;-57
2023/08/13 12:50:04;;;;;;;2.55;0.60;;;22.80;99.90;;;;;;5046213;28;20029;-56
2023/08/13 12:52:30;;;;;;;4.88;1.00;;;23.70;99.90;;;;;;5046939;28;20102;-55
2023/08/13 12:54:55;;;;;;;4.57;0.93;;;22.60;99.90;;;;;;5045265;28;20076;-57
2023/08/13 12:57:21;;;;;;;2.30;0.75;;;22.70;99.90;;;;;;5045529;28;20029;-53